createdAt,value
2022-10-16T00:01:54.426Z,19.40
2022-10-16T00:04:23.600Z,19.40
2022-10-16T00:06:52.637Z,19.30
2022-10-16T00:09:21.735Z,19.20
2022-10-16T00:11:52.290Z,19.20
2022-10-16T00:14:21.526Z,19.10
2022-10-16T00:16:50.836Z,19.10
2022-10-16T00:19:19.904Z,19.20
2022-10-16T00:21:49.005Z,19.10
2022-10-16T00:24:18.081Z,19.10
2022-10-16T00:26:47.236Z,19.00
2022-10-16T00:29:17.699Z,19.10
2022-10-16T00:31:46.737Z,19.10
2022-10-16T00:34:15.847Z,19.10
2022-10-16T00:36:44.985Z,19.10
2022-10-16T00:39:14.087Z,19.20
2022-10-16T00:41:43.220Z,19.20
2022-10-16T00:44:53.647Z,19.30
2022-10-16T00:47:26.990Z,19.20
2022-10-16T00:50:02.207Z,19.20
2022-10-16T00:52:33.471Z,19.20
2022-10-16T00:55:04.912Z,19.20
2022-10-16T00:57:34.091Z,19.00
2022-10-16T01:00:06.497Z,18.90
2022-10-16T01:02:35.725Z,19.00
2022-10-16T01:05:05.391Z,18.90
2022-10-16T01:07:43.829Z,18.80
2022-10-16T01:10:21.019Z,18.70
2022-10-16T01:12:55.947Z,18.60
2022-10-16T01:15:30.182Z,18.60
2022-10-16T01:18:04.908Z,18.50
2022-10-16T01:20:39.124Z,18.50
2022-10-16T01:23:18.155Z,18.50
2022-10-16T01:26:02.320Z,18.40
2022-10-16T01:28:36.991Z,18.40
2022-10-16T01:31:06.743Z,18.50
2022-10-16T01:33:40.962Z,18.50
2022-10-16T01:36:15.835Z,18.40
2022-10-16T01:38:49.139Z,18.40
2022-10-16T01:41:22.324Z,18.20
2022-10-16T01:43:57.013Z,18.20
2022-10-16T01:46:27.226Z,18.30
2022-10-16T01:48:57.844Z,18.20
2022-10-16T01:51:29.495Z,18.10
2022-10-16T01:54:02.824Z,18.10
2022-10-16T01:56:33.204Z,18.10
2022-10-16T01:59:07.925Z,18.10
2022-10-16T02:01:39.607Z,18.00
2022-10-16T02:04:14.157Z,17.90
2022-10-16T02:06:43.595Z,18.00
2022-10-16T02:09:12.919Z,17.80
2022-10-16T02:11:42.064Z,18.00
2022-10-16T02:14:12.632Z,17.90
2022-10-16T02:16:45.069Z,17.80
2022-10-16T02:19:20.114Z,17.80
2022-10-16T02:21:54.495Z,17.70
2022-10-16T02:24:31.425Z,17.70
2022-10-16T02:27:06.019Z,17.70
2022-10-16T02:29:41.471Z,17.70
2022-10-16T02:32:12.783Z,17.70
2022-10-16T02:34:43.308Z,17.70
2022-10-16T02:37:12.813Z,17.60
2022-10-16T02:39:42.966Z,17.60
2022-10-16T02:42:14.404Z,17.50
2022-10-16T02:44:44.935Z,17.40
2022-10-16T02:47:13.997Z,17.40
2022-10-16T02:49:43.025Z,17.40
2022-10-16T02:52:12.179Z,17.50
2022-10-16T02:54:41.309Z,17.40
2022-10-16T02:57:10.559Z,17.40
2022-10-16T02:59:39.588Z,17.50
2022-10-16T03:02:10.286Z,17.40
2022-10-16T03:04:39.436Z,17.30
2022-10-16T03:07:08.919Z,17.30
2022-10-16T03:09:37.990Z,17.20
2022-10-16T03:12:07.539Z,17.20
2022-10-16T03:14:36.642Z,17.30
2022-10-16T03:17:05.769Z,17.40
2022-10-16T03:19:37.088Z,17.30
2022-10-16T03:22:06.219Z,17.20
2022-10-16T03:24:35.240Z,17.30
2022-10-16T03:27:04.567Z,17.20
2022-10-16T03:29:34.145Z,17.20
2022-10-16T03:32:03.645Z,17.20
2022-10-16T03:34:32.987Z,17.10
2022-10-16T03:37:03.686Z,17.10
2022-10-16T03:39:32.784Z,17.20
2022-10-16T03:42:01.907Z,17.20
2022-10-16T03:44:30.931Z,17.10
2022-10-16T03:47:00.001Z,17.10
2022-10-16T03:49:29.061Z,17.10
2022-10-16T03:51:58.305Z,17.00
2022-10-16T03:54:28.905Z,17.10
2022-10-16T03:56:57.991Z,17.10
2022-10-16T03:59:27.202Z,17.10
2022-10-16T04:01:57.316Z,17.10
2022-10-16T04:04:26.839Z,17.10
2022-10-16T04:06:55.969Z,17.00
2022-10-16T04:09:25.162Z,17.00
2022-10-16T04:11:55.721Z,17.10
2022-10-16T04:14:24.894Z,17.00
2022-10-16T04:16:55.112Z,17.00
2022-10-16T04:19:24.249Z,16.90
2022-10-16T04:21:53.488Z,16.90
2022-10-16T04:24:22.520Z,16.90
2022-10-16T04:26:51.651Z,16.80
2022-10-16T04:29:22.235Z,16.80
2022-10-16T04:31:51.339Z,16.80
2022-10-16T04:34:20.406Z,16.80
2022-10-16T04:36:50.859Z,16.70
2022-10-16T04:39:20.837Z,16.80
2022-10-16T04:41:49.847Z,16.80
2022-10-16T04:44:18.987Z,16.80
2022-10-16T04:46:50.362Z,16.80
2022-10-16T04:49:19.507Z,16.90
2022-10-16T04:51:48.794Z,16.70
2022-10-16T04:54:17.863Z,16.80
2022-10-16T04:56:48.672Z,16.00
2022-10-16T04:59:18.027Z,16.70
2022-10-16T05:01:49.091Z,16.70
2022-10-16T05:04:18.333Z,16.70
2022-10-16T05:06:47.418Z,16.40
2022-10-16T05:09:16.527Z,16.70
2022-10-16T05:11:45.632Z,16.70
2022-10-16T05:14:14.687Z,16.70
2022-10-16T05:16:44.076Z,16.60
2022-10-16T05:19:29.812Z,16.70
2022-10-16T05:21:59.263Z,16.70
2022-10-16T05:24:28.412Z,16.70
2022-10-16T05:26:57.851Z,16.70
2022-10-16T05:29:27.131Z,16.80
2022-10-16T05:31:56.708Z,16.70
2022-10-16T05:34:27.342Z,16.70
2022-10-16T05:36:56.453Z,16.70
2022-10-16T05:39:25.644Z,16.60
2022-10-16T05:41:54.628Z,16.70
2022-10-16T05:44:23.783Z,16.50
2022-10-16T05:46:52.970Z,16.50
2022-10-16T05:49:22.030Z,16.50
2022-10-16T05:51:52.634Z,16.50
2022-10-16T05:54:21.872Z,16.50
2022-10-16T05:56:50.968Z,16.50
2022-10-16T05:59:20.088Z,16.50
2022-10-16T06:01:49.218Z,16.60
2022-10-16T06:04:18.361Z,16.70
2022-10-16T06:06:47.421Z,16.70
2022-10-16T06:09:18.085Z,16.70
2022-10-16T06:11:47.271Z,16.60
2022-10-16T06:14:16.266Z,16.70
2022-10-16T06:16:45.647Z,16.60
2022-10-16T06:19:14.915Z,16.80
2022-10-16T06:21:44.027Z,16.70
2022-10-16T06:24:13.369Z,16.80
2022-10-16T06:26:43.813Z,16.60
2022-10-16T06:29:12.941Z,16.70
2022-10-16T06:31:44.376Z,16.60
2022-10-16T06:34:13.876Z,16.70
2022-10-16T06:36:44.677Z,16.80
2022-10-16T06:39:14.082Z,16.80
2022-10-16T06:41:44.739Z,16.80
2022-10-16T06:44:18.354Z,16.90
2022-10-16T06:46:47.550Z,17.10
2022-10-16T06:49:22.787Z,17.10
2022-10-16T06:51:52.185Z,17.20
2022-10-16T06:54:21.278Z,17.20
2022-10-16T06:56:55.359Z,17.20
2022-10-16T06:59:24.609Z,17.20
2022-10-16T07:01:53.610Z,17.30
2022-10-16T07:04:22.717Z,17.50
2022-10-16T07:06:52.764Z,17.20
2022-10-16T07:09:21.870Z,17.40
2022-10-16T07:11:52.390Z,17.70
2022-10-16T07:14:22.618Z,17.70
2022-10-16T07:16:51.874Z,17.80
2022-10-16T07:19:21.029Z,17.90
2022-10-16T07:21:50.037Z,17.90
2022-10-16T07:24:19.953Z,18.10
2022-10-16T07:26:49.241Z,18.00
2022-10-16T07:29:21.695Z,18.00
2022-10-16T07:31:51.685Z,18.10
2022-10-16T07:34:22.833Z,18.10
2022-10-16T07:36:52.786Z,18.10
2022-10-16T07:39:21.882Z,18.10
2022-10-16T07:41:51.947Z,18.10
2022-10-16T07:44:22.503Z,18.20
2022-10-16T07:46:51.635Z,18.40
2022-10-16T07:49:20.896Z,18.40
2022-10-16T07:51:49.906Z,18.50
2022-10-16T07:54:19.013Z,18.50
2022-10-16T07:56:48.060Z,18.40
2022-10-16T07:59:17.144Z,18.60
2022-10-16T08:01:47.803Z,18.70
2022-10-16T08:04:16.980Z,18.90
2022-10-16T08:06:46.134Z,19.00
2022-10-16T08:09:15.579Z,19.10
2022-10-16T08:11:44.583Z,19.20
2022-10-16T08:14:13.719Z,19.20
2022-10-16T08:16:42.794Z,19.20
2022-10-16T08:19:13.298Z,19.00
2022-10-16T08:21:42.468Z,19.20
2022-10-16T08:24:11.508Z,19.20
2022-10-16T08:26:40.545Z,19.50
2022-10-16T08:29:09.789Z,19.70
2022-10-16T08:31:38.890Z,19.70
2022-10-16T08:34:07.922Z,19.60
2022-10-16T08:36:39.149Z,19.80
2022-10-16T08:39:08.456Z,19.80
2022-10-16T08:42:15.035Z,19.70
2022-10-16T08:45:24.152Z,19.70
2022-10-16T08:48:02.818Z,19.90
2022-10-16T08:50:34.473Z,19.90
2022-10-16T08:53:07.504Z,20.00
2022-10-16T08:55:43.672Z,20.20
2022-10-16T08:58:15.856Z,20.40
2022-10-16T09:00:48.171Z,20.40
2022-10-16T09:03:26.674Z,20.50
2022-10-16T09:06:19.268Z,20.50
2022-10-16T09:09:05.267Z,20.50
2022-10-16T09:11:45.954Z,20.60
2022-10-16T09:14:37.431Z,20.60
2022-10-16T09:17:25.610Z,20.70
2022-10-16T09:20:00.832Z,20.80
2022-10-16T09:22:31.657Z,20.90
2022-10-16T09:25:12.647Z,21.10
2022-10-16T09:27:41.905Z,21.10
2022-10-16T09:30:16.610Z,21.30
2022-10-16T09:32:47.089Z,21.60
2022-10-16T09:35:19.371Z,21.50
2022-10-16T09:37:52.084Z,21.40
2022-10-16T09:40:33.711Z,21.60
2022-10-16T09:43:10.224Z,21.90
2022-10-16T09:45:39.671Z,21.80
2022-10-16T09:48:14.875Z,21.90
2022-10-16T09:50:44.064Z,21.70
2022-10-16T09:53:20.057Z,21.80
2022-10-16T09:55:55.164Z,21.70
2022-10-16T09:58:25.807Z,21.60
2022-10-16T10:00:56.641Z,21.70
2022-10-16T10:03:38.498Z,21.80
2022-10-16T10:06:19.101Z,22.10
2022-10-16T10:09:05.533Z,22.20
2022-10-16T10:11:53.715Z,22.40
2022-10-16T10:14:41.419Z,22.30
2022-10-16T10:17:14.953Z,22.20
2022-10-16T10:19:48.661Z,22.70
2022-10-16T10:22:27.997Z,22.50
2022-10-16T10:24:58.954Z,22.50
2022-10-16T10:27:38.085Z,22.50
2022-10-16T10:30:13.335Z,22.80
2022-10-16T10:32:54.945Z,22.90
2022-10-16T10:35:30.691Z,22.50
2022-10-16T10:38:18.762Z,22.60
2022-10-16T10:40:54.014Z,22.80
2022-10-16T10:43:43.493Z,22.40
2022-10-16T10:46:19.766Z,23.10
2022-10-16T10:49:17.732Z,23.50
2022-10-16T10:51:56.648Z,23.40
2022-10-16T10:54:35.525Z,23.80
2022-10-16T10:57:10.556Z,23.80
2022-10-16T11:00:06.096Z,24.10
2022-10-16T11:02:40.924Z,24.10
2022-10-16T11:05:43.880Z,24.10
2022-10-16T11:08:18.559Z,23.80
2022-10-16T11:10:54.995Z,24.20
2022-10-16T11:13:33.808Z,24.70
2022-10-16T11:16:11.779Z,25.10
2022-10-16T11:18:49.475Z,24.70
2022-10-16T11:21:22.054Z,23.70
2022-10-16T11:23:57.482Z,22.60
2022-10-16T11:26:30.122Z,22.80
2022-10-16T11:29:00.718Z,23.00
2022-10-16T11:31:39.312Z,22.70
2022-10-16T11:34:19.913Z,22.20
2022-10-16T11:36:54.328Z,22.20
2022-10-16T11:39:25.758Z,22.60
2022-10-16T11:41:57.383Z,22.80
2022-10-16T11:44:51.166Z,23.20
2022-10-16T11:50:26.250Z,24.40
2022-10-16T11:53:02.022Z,25.00
2022-10-16T11:55:36.396Z,24.80
2022-10-16T11:58:09.654Z,24.40
2022-10-16T12:00:47.306Z,24.20
2022-10-16T12:03:27.438Z,24.60
2022-10-16T12:06:05.964Z,23.80
2022-10-16T12:08:39.180Z,24.60
2022-10-16T12:11:22.632Z,25.10
2022-10-16T12:13:51.900Z,25.50
2022-10-16T12:16:26.070Z,25.80
2022-10-16T12:19:16.288Z,26.50
2022-10-16T12:21:47.203Z,27.00
2022-10-16T12:24:29.962Z,27.00
2022-10-16T12:26:59.373Z,27.30
2022-10-16T12:29:36.758Z,26.40
2022-10-16T12:32:10.876Z,25.60
2022-10-16T12:34:44.900Z,25.20
2022-10-16T12:37:22.167Z,26.20
2022-10-16T12:39:51.897Z,26.60
2022-10-16T12:42:26.821Z,25.10
2022-10-16T12:44:57.507Z,24.80
2022-10-16T12:47:40.626Z,24.70
2022-10-16T12:50:33.649Z,24.50
2022-10-16T12:53:03.818Z,24.10
2022-10-16T12:55:43.658Z,24.20
2022-10-16T12:58:26.173Z,24.30
2022-10-16T13:01:00.683Z,23.80
2022-10-16T13:04:08.184Z,24.00
2022-10-16T13:06:47.392Z,24.00
2022-10-16T13:09:43.276Z,24.10
2022-10-16T13:12:39.387Z,24.30
2022-10-16T13:15:36.907Z,24.40
2022-10-16T13:18:24.667Z,24.30
2022-10-16T13:21:22.568Z,24.60
2022-10-16T13:24:05.116Z,25.20
2022-10-16T13:26:48.270Z,26.10
2022-10-16T13:29:33.709Z,25.60
2022-10-16T13:32:13.172Z,26.30
2022-10-16T13:34:47.913Z,25.80
2022-10-16T13:37:22.008Z,25.40
2022-10-16T13:39:52.995Z,25.70
2022-10-16T13:42:28.199Z,26.20
2022-10-16T13:44:58.783Z,26.40
2022-10-16T13:47:29.596Z,25.20
2022-10-16T13:50:10.399Z,24.80
2022-10-16T13:52:47.285Z,24.60
2022-10-16T13:55:35.163Z,23.70
2022-10-16T13:58:11.393Z,23.70
2022-10-16T14:00:40.543Z,24.50
2022-10-16T14:03:15.818Z,25.60
2022-10-16T14:05:50.062Z,25.40
2022-10-16T14:08:19.569Z,24.80
2022-10-16T14:10:53.663Z,24.90
2022-10-16T14:13:29.067Z,24.60
2022-10-16T14:15:59.880Z,24.80
2022-10-16T14:18:33.675Z,25.60
2022-10-16T14:21:09.840Z,26.50
2022-10-16T14:23:41.003Z,25.90
2022-10-16T14:26:20.317Z,26.10
2022-10-16T14:28:51.253Z,26.60
2022-10-16T14:31:31.683Z,26.70
2022-10-16T14:34:01.599Z,26.40
2022-10-16T14:36:31.986Z,25.90
2022-10-16T14:39:06.721Z,26.00
2022-10-16T14:41:47.072Z,25.80
2022-10-16T14:44:22.010Z,25.40
2022-10-16T14:46:51.335Z,25.90
2022-10-16T14:49:22.814Z,26.20
2022-10-16T14:51:53.239Z,26.30
2022-10-16T14:54:22.465Z,26.00
2022-10-16T14:56:55.612Z,25.70
2022-10-16T14:59:30.245Z,25.70
2022-10-16T15:01:59.872Z,25.20
2022-10-16T15:04:29.023Z,25.20
2022-10-16T15:06:58.099Z,24.90
2022-10-16T15:09:27.279Z,25.10
2022-10-16T15:11:57.789Z,25.20
2022-10-16T15:14:26.850Z,25.00
2022-10-16T15:16:55.974Z,25.10
2022-10-16T15:19:25.042Z,24.90
2022-10-16T15:21:54.228Z,24.90
2022-10-16T15:24:23.368Z,24.60
2022-10-16T15:26:52.454Z,24.70
2022-10-16T15:29:23.098Z,24.50
2022-10-16T15:31:52.172Z,24.50
2022-10-16T15:34:21.472Z,24.50
2022-10-16T15:36:50.618Z,24.40
2022-10-16T15:39:21.182Z,24.20
2022-10-16T15:41:52.431Z,23.80
2022-10-16T15:44:24.335Z,23.70
2022-10-16T15:46:53.679Z,23.50
2022-10-16T15:49:22.757Z,23.40
2022-10-16T15:51:54.107Z,23.30
2022-10-16T15:54:24.027Z,23.20
2022-10-16T15:56:53.089Z,23.00
2022-10-16T15:59:25.000Z,22.90
2022-10-16T16:01:54.118Z,22.80
2022-10-16T16:04:42.707Z,22.60
2022-10-16T16:07:12.399Z,22.50
2022-10-16T16:09:41.475Z,22.40
2022-10-16T16:12:10.686Z,22.20
2022-10-16T16:14:41.187Z,22.10
2022-10-16T16:17:10.261Z,22.00
2022-10-16T16:19:39.297Z,22.00
2022-10-16T16:22:10.913Z,22.00
2022-10-16T16:24:42.213Z,22.00
2022-10-16T16:27:11.519Z,22.00
2022-10-16T16:29:42.325Z,21.90
2022-10-16T16:32:11.681Z,21.80
2022-10-16T16:34:40.752Z,21.60
2022-10-16T16:37:10.016Z,21.50
2022-10-16T16:39:39.067Z,21.50
2022-10-16T16:42:08.802Z,21.50
2022-10-16T16:44:38.239Z,21.50
2022-10-16T16:47:08.902Z,21.40
2022-10-16T16:49:38.191Z,21.40
2022-10-16T16:52:07.348Z,21.40
2022-10-16T16:54:36.512Z,21.40
2022-10-16T16:57:05.714Z,21.30
2022-10-16T16:59:35.060Z,21.30
2022-10-16T17:02:05.255Z,21.30
2022-10-16T17:04:35.810Z,21.20
2022-10-16T17:07:04.924Z,21.10
2022-10-16T17:09:35.213Z,20.80
2022-10-16T17:12:04.297Z,20.30
2022-10-16T17:14:33.520Z,20.20
2022-10-16T17:17:02.696Z,20.30
2022-10-16T17:19:31.930Z,20.40
2022-10-16T17:24:33.276Z,20.60
2022-10-16T17:27:02.383Z,20.50
2022-10-16T17:29:31.481Z,20.60
2022-10-16T17:32:00.812Z,20.50
2022-10-16T17:34:30.071Z,20.50
2022-10-16T17:36:59.102Z,20.50
2022-10-16T17:39:29.786Z,20.40
2022-10-16T17:41:58.866Z,20.30
2022-10-16T17:44:28.048Z,20.30
2022-10-16T17:46:57.182Z,20.30
2022-10-16T17:49:26.300Z,20.20
2022-10-16T17:51:55.735Z,20.10
2022-10-16T17:54:24.955Z,20.00
2022-10-16T17:56:55.502Z,19.80
2022-10-16T17:59:24.639Z,19.70
2022-10-16T18:01:53.853Z,19.80
2022-10-16T18:04:23.082Z,19.80
2022-10-16T18:06:52.246Z,19.90
2022-10-16T18:09:22.219Z,19.90
2022-10-16T18:11:55.822Z,20.00
2022-10-16T18:14:26.342Z,20.00
2022-10-16T18:16:55.551Z,19.90
2022-10-16T18:19:24.804Z,19.80
2022-10-16T18:21:55.865Z,19.80
2022-10-16T18:24:26.110Z,19.50
2022-10-16T18:26:57.805Z,19.50
2022-10-16T18:29:29.289Z,19.50
2022-10-16T18:31:58.634Z,19.40
2022-10-16T18:34:28.185Z,19.40
2022-10-16T18:36:57.911Z,19.20
2022-10-16T18:39:27.003Z,19.20
2022-10-16T18:42:00.067Z,19.30
2022-10-16T18:44:32.316Z,19.30
2022-10-16T18:47:02.742Z,19.30
2022-10-16T18:49:32.874Z,19.40
2022-10-16T18:52:03.520Z,19.50
2022-10-16T18:54:33.429Z,19.20
2022-10-16T18:57:02.526Z,18.90
2022-10-16T18:59:33.356Z,18.80
2022-10-16T19:02:02.503Z,18.90
2022-10-16T19:04:31.652Z,19.20
2022-10-16T19:07:00.700Z,19.20
2022-10-16T19:09:29.778Z,19.20
2022-10-16T19:11:59.935Z,19.20
2022-10-16T19:14:32.962Z,19.20
2022-10-16T19:17:02.025Z,19.10
2022-10-16T19:19:31.974Z,19.00
2022-10-16T19:22:14.634Z,19.10
2022-10-16T19:24:45.424Z,19.00
2022-10-16T19:27:14.462Z,19.00
2022-10-16T19:29:45.074Z,18.90
2022-10-16T19:32:15.711Z,19.10
2022-10-16T19:34:46.220Z,18.90
2022-10-16T19:37:15.389Z,18.90
2022-10-16T19:39:44.462Z,18.80
2022-10-16T19:42:13.560Z,18.80
2022-10-16T19:44:44.429Z,18.80
2022-10-16T19:47:13.540Z,18.80
2022-10-16T19:49:42.743Z,18.70
2022-10-16T19:52:11.834Z,18.60
2022-10-16T19:54:40.933Z,18.80
2022-10-16T19:57:10.132Z,18.70
2022-10-16T19:59:41.895Z,18.70
2022-10-16T20:02:15.404Z,18.70
2022-10-16T20:04:44.541Z,18.70
2022-10-16T20:07:13.575Z,18.70
2022-10-16T20:09:43.533Z,18.50
2022-10-16T20:12:12.630Z,18.30
2022-10-16T20:14:43.778Z,18.30
2022-10-16T20:17:15.525Z,18.20
2022-10-16T20:19:44.843Z,18.10
2022-10-16T20:22:13.933Z,18.20
2022-10-16T20:24:43.127Z,18.20
2022-10-16T20:27:12.155Z,18.20
2022-10-16T20:29:41.373Z,18.20
2022-10-16T20:32:10.394Z,18.30
2022-10-16T20:34:40.867Z,18.40
2022-10-16T20:37:10.036Z,19.00
2022-10-16T20:39:39.185Z,18.50
2022-10-16T20:42:08.209Z,18.50
2022-10-16T20:44:37.284Z,18.50
2022-10-16T20:47:06.336Z,18.50
2022-10-16T20:49:40.765Z,18.30
2022-10-16T20:52:11.700Z,18.30
2022-10-16T20:54:40.987Z,18.30
2022-10-16T20:57:12.349Z,18.20
2022-10-16T20:59:41.462Z,18.20
2022-10-16T21:02:14.204Z,18.10
2022-10-16T21:04:43.753Z,18.00
2022-10-16T21:07:14.288Z,18.00
2022-10-16T21:09:44.472Z,18.20
2022-10-16T21:12:13.527Z,18.30
2022-10-16T21:14:56.464Z,18.10
2022-10-16T21:17:32.924Z,18.10
2022-10-16T21:20:02.052Z,17.90
2022-10-16T21:22:33.635Z,18.00
2022-10-16T21:25:02.730Z,17.90
2022-10-16T21:27:31.778Z,17.90
2022-10-16T21:30:00.881Z,17.90
2022-10-16T21:32:30.221Z,17.90
2022-10-16T21:34:59.523Z,18.10
2022-10-16T21:37:28.602Z,18.10
2022-10-16T21:39:59.151Z,18.10
2022-10-16T21:42:28.485Z,18.10
2022-10-16T21:44:57.844Z,18.20
2022-10-16T21:47:26.923Z,18.10
2022-10-16T21:49:56.117Z,18.00
2022-10-16T21:52:25.435Z,18.00
2022-10-16T21:54:54.793Z,18.10
2022-10-16T21:57:25.672Z,18.10
2022-10-16T21:59:54.895Z,18.00
2022-10-16T22:02:24.135Z,18.10
2022-10-16T22:04:53.176Z,18.20
2022-10-16T22:07:22.182Z,18.10
2022-10-16T22:09:51.233Z,18.00
2022-10-16T22:12:21.016Z,18.10
2022-10-16T22:14:51.614Z,18.00
2022-10-16T22:17:20.686Z,18.00
2022-10-16T22:19:49.875Z,18.10
2022-10-16T22:22:19.020Z,17.90
2022-10-16T22:24:48.260Z,17.80
2022-10-16T22:27:17.357Z,17.80
2022-10-16T22:29:46.473Z,17.70
2022-10-16T22:32:16.970Z,17.70
2022-10-16T22:34:47.744Z,17.70
2022-10-16T22:39:39.259Z,19.70
2022-10-16T22:42:08.369Z,17.80
2022-10-16T22:44:37.468Z,17.60
2022-10-16T22:47:06.494Z,17.60
2022-10-16T22:49:35.651Z,17.60
2022-10-16T22:52:04.817Z,17.60
2022-10-16T22:54:33.884Z,17.70
2022-10-16T22:57:04.476Z,17.90
2022-10-16T22:59:33.654Z,17.80
2022-10-16T23:02:02.815Z,17.80
2022-10-16T23:04:33.990Z,18.00
2022-10-16T23:07:03.029Z,18.00
2022-10-16T23:09:32.149Z,17.90
2022-10-16T23:12:01.321Z,18.10
2022-10-16T23:14:31.922Z,18.00
2022-10-16T23:17:00.984Z,18.00
2022-10-16T23:19:32.215Z,18.10
2022-10-16T23:22:01.287Z,18.00
2022-10-16T23:24:32.770Z,18.00
2022-10-16T23:27:01.842Z,17.90
2022-10-16T23:29:32.422Z,17.90
2022-10-16T23:32:01.553Z,17.90
2022-10-16T23:34:30.708Z,17.90
2022-10-16T23:36:59.744Z,17.80
2022-10-16T23:39:28.827Z,17.80
2022-10-16T23:41:57.888Z,17.70
2022-10-16T23:44:27.071Z,17.60
2022-10-16T23:46:57.642Z,17.40
2022-10-16T23:49:26.729Z,17.40
2022-10-16T23:51:55.756Z,17.60
2022-10-16T23:54:24.831Z,17.60
2022-10-16T23:56:53.943Z,17.60
2022-10-16T23:59:23.215Z,17.70
